Time;durP1;ratioP1;P1;durP2;ratioP2;P2;SDS_P1;SDS_P2;PMS_P1;PMS_P2;Temp;Humidity;BMP_temperature;BMP_pressure;BME280_temperature;BME280_humidity;BME280_pressure;Samples;Min_cycle;Max_cycle;Signal;HPM_P1;HPM_P2
2022/03/07 00:02:04;;;;;;;43.27;8.33;;;;;;;;;;5049085;28;20234;-55
2022/03/07 00:04:30;;;;;;;25.40;6.20;;;;;;;;;;5050264;28;20817;-56
2022/03/07 00:06:56;;;;;;;44.57;8.50;;;;;;;;;;5048100;28;20182;-56
2022/03/07 00:09:22;;;;;;;42.60;8.13;;;;;;;;;;5048140;28;20196;-56
2022/03/07 00:11:48;;;;;;;34.23;7.10;;;;;;;;;;5049287;28;20591;-56
2022/03/07 00:14:14;;;;;;;40.63;8.00;;;;;;;;;;5049234;28;20252;-56
2022/03/07 00:16:40;;;;;;;40.97;8.10;;;;;;;;;;5049807;28;20199;-56
2022/03/07 00:19:06;;;;;;;43.77;8.53;;;;;;;;;;5048402;28;20195;-56
2022/03/07 00:21:34;;;;;;;48.17;9.07;;;;;;;;;;5048318;28;20175;-56
2022/03/07 00:24:00;;;;;;;36.67;6.90;;;;;;;;;;5030520;28;20256;-55
2022/03/07 00:26:25;;;;;;;29.40;6.20;;;;;;;;;;5049458;28;20179;-56
2022/03/07 00:28:51;;;;;;;40.57;8.03;;;;;;;;;;5049083;28;20330;-56
2022/03/07 00:31:19;;;;;;;46.10;8.70;;;;;;;;;;5048385;28;20186;-56
2022/03/07 00:33:45;;;;;;;43.07;8.07;;;;;;;;;;5049392;28;20230;-56
2022/03/07 00:36:11;;;;;;;44.57;8.40;;;;;;;;;;5047521;28;20219;-56
2022/03/07 00:38:38;;;;;;;45.97;8.83;;;;;;;;;;5047316;28;20184;-56
2022/03/07 00:41:04;;;;;;;46.43;8.83;;;;;;;;;;5047664;28;20549;-56
2022/03/07 00:43:30;;;;;;;31.57;6.37;;;;;;;;;;5047171;28;20191;-56
2022/03/07 00:45:56;;;;;;;38.53;7.00;;;;;;;;;;5049215;28;20265;-56
2022/03/07 00:48:22;;;;;;;43.33;7.80;;;;;;;;;;5048208;28;20269;-56
2022/03/07 00:50:49;;;;;;;46.10;8.13;;;;;;;;;;5047041;28;20191;-56
2022/03/07 00:53:20;;;;;;;39.53;7.73;;;;;;;;;;5047440;28;20175;-56
2022/03/07 00:55:46;;;;;;;45.43;8.73;;;;;;;;;;5047243;28;20290;-56
2022/03/07 00:58:13;;;;;;;38.97;7.50;;;;;;;;;;5048621;28;20257;-56
2022/03/07 01:00:39;;;;;;;41.60;7.97;;;;;;;;;;5047530;28;20187;-56
2022/03/07 01:03:06;;;;;;;46.40;8.43;;;;;;;;;;5047952;28;20180;-58
2022/03/07 01:05:32;;;;;;;56.00;9.23;;;;;;;;;;5048045;28;20647;-56
2022/03/07 01:07:58;;;;;;;40.77;7.80;;;;;;;;;;5047519;28;20307;-56
2022/03/07 01:10:24;;;;;;;34.87;6.57;;;;;;;;;;5047487;28;20176;-56
2022/03/07 01:12:50;;;;;;;52.37;9.37;;;;;;;;;;5047181;28;20266;-56
2022/03/07 01:15:16;;;;;;;49.67;9.20;;;;;;;;;;5046996;28;20191;-56
2022/03/07 01:17:42;;;;;;;41.40;8.00;;;;;;;;;;5047363;28;20195;-56
2022/03/07 01:20:10;;;;;;;45.43;8.33;;;;;;;;;;5046297;28;20190;-56
2022/03/07 01:22:36;;;;;;;37.07;7.40;;;;;;;;;;5048056;28;20179;-56
2022/03/07 01:25:05;;;;;;;33.87;7.13;;;;;;;;;;5048507;28;20194;-56
2022/03/07 01:27:32;;;;;;;52.50;9.10;;;;;;;;;;5047323;28;20171;-56
2022/03/07 01:29:58;;;;;;;19.50;5.20;;;;;;;;;;5047677;28;20361;-56
2022/03/07 01:32:23;;;;;;;42.90;7.70;;;;;;;;;;5047000;28;20627;-56
2022/03/07 01:34:49;;;;;;;36.77;7.63;;;;;;;;;;5048043;28;20275;-56
2022/03/07 01:37:15;;;;;;;53.10;9.30;;;;;;;;;;5047188;28;20172;-55
2022/03/07 01:39:42;;;;;;;41.33;8.03;;;;;;;;;;5047794;28;20198;-56
2022/03/07 01:42:08;;;;;;;51.87;8.63;;;;;;;;;;5047075;28;20180;-55
2022/03/07 01:44:34;;;;;;;51.33;9.00;;;;;;;;;;5046064;28;20728;-56
2022/03/07 01:47:00;;;;;;;36.13;7.43;;;;;;;;;;5046945;28;20267;-56
2022/03/07 01:49:27;;;;;;;42.57;7.87;;;;;;;;;;5046638;28;20628;-56
2022/03/07 01:51:53;;;;;;;56.10;9.67;;;;;;;;;;5046938;28;20198;-56
2022/03/07 01:54:20;;;;;;;34.57;6.97;;;;;;;;;;5045832;28;20203;-56
2022/03/07 01:56:47;;;;;;;38.87;7.87;;;;;;;;;;5047364;28;20171;-56
2022/03/07 01:59:14;;;;;;;36.07;6.83;;;;;;;;;;5046763;28;20275;-56
2022/03/07 02:01:40;;;;;;;56.27;9.27;;;;;;;;;;5046672;28;20182;-56
2022/03/07 02:04:07;;;;;;;39.93;7.97;;;;;;;;;;5047721;28;20287;-55
2022/03/07 02:06:33;;;;;;;38.97;7.63;;;;;;;;;;5046791;28;20183;-56
2022/03/07 02:08:59;;;;;;;48.43;8.77;;;;;;;;;;5045596;28;20261;-55
2022/03/07 02:11:25;;;;;;;55.77;9.17;;;;;;;;;;5046184;28;20210;-56
2022/03/07 02:13:52;;;;;;;45.13;8.47;;;;;;;;;;5046822;28;20270;-56
2022/03/07 02:16:19;;;;;;;48.13;8.20;;;;;;;;;;5046075;28;20207;-56
2022/03/07 02:18:45;;;;;;;35.37;7.33;;;;;;;;;;5046535;28;20660;-56
2022/03/07 02:21:14;;;;;;;40.53;7.97;;;;;;;;;;5045690;28;20361;-56
2022/03/07 02:23:40;;;;;;;38.90;7.27;;;;;;;;;;5046109;28;20171;-56
2022/03/07 02:26:10;;;;;;;51.97;8.77;;;;;;;;;;5046190;28;20225;-56
2022/03/07 02:28:36;;;;;;;34.50;6.50;;;;;;;;;;5046945;28;20219;-56
2022/03/07 02:31:02;;;;;;;36.27;6.77;;;;;;;;;;5047542;28;20313;-56
2022/03/07 02:33:28;;;;;;;45.57;7.87;;;;;;;;;;5047324;28;20529;-55
2022/03/07 02:35:56;;;;;;;44.63;8.10;;;;;;;;;;5046188;28;20187;-56
2022/03/07 02:38:21;;;;;;;34.50;6.93;;;;;;;;;;5047464;28;20562;-56
2022/03/07 02:40:48;;;;;;;40.13;7.77;;;;;;;;;;5046957;28;20405;-55
2022/03/07 02:43:14;;;;;;;35.57;7.23;;;;;;;;;;5046623;28;20176;-56
2022/03/07 02:45:40;;;;;;;46.30;8.57;;;;;;;;;;5046681;28;20203;-56
2022/03/07 02:48:06;;;;;;;33.93;7.00;;;;;;;;;;5046608;28;20196;-56
2022/03/07 02:50:32;;;;;;;21.77;5.60;;;;;;;;;;5047399;28;20171;-56
2022/03/07 02:52:58;;;;;;;36.77;7.37;;;;;;;;;;5047227;28;20172;-56
2022/03/07 02:55:25;;;;;;;42.93;8.23;;;;;;;;;;5047258;28;20192;-56
2022/03/07 02:57:51;;;;;;;50.97;9.07;;;;;;;;;;5045000;28;20184;-56
2022/03/07 03:00:17;;;;;;;32.37;6.43;;;;;;;;;;5046386;28;20524;-56
2022/03/07 03:02:43;;;;;;;41.80;7.80;;;;;;;;;;5028533;28;20180;-55
2022/03/07 03:05:09;;;;;;;36.53;7.00;;;;;;;;;;5048459;28;20196;-56
2022/03/07 03:07:35;;;;;;;40.83;8.07;;;;;;;;;;5050281;28;20188;-56
2022/03/07 03:10:01;;;;;;;39.70;7.23;;;;;;;;;;5050497;28;20224;-56
2022/03/07 03:12:27;;;;;;;34.50;6.63;;;;;;;;;;5050735;28;20175;-56
2022/03/07 03:14:54;;;;;;;41.77;7.50;;;;;;;;;;5050677;28;20219;-56
2022/03/07 03:17:20;;;;;;;42.57;8.07;;;;;;;;;;5051149;28;20187;-56
2022/03/07 03:19:46;;;;;;;43.87;7.93;;;;;;;;;;5049835;28;20183;-56
2022/03/07 03:22:12;;;;;;;36.20;7.00;;;;;;;;;;5050513;28;20176;-55
2022/03/07 03:24:38;;;;;;;47.47;8.30;;;;;;;;;;5049764;28;20261;-56
2022/03/07 03:27:07;;;;;;;17.83;4.77;;;;;;;;;;5050199;28;20175;-56
2022/03/07 03:29:33;;;;;;;35.33;7.43;;;;;;;;;;5050762;28;20332;-55
2022/03/07 03:31:59;;;;;;;53.30;9.47;;;;;;;;;;5049664;28;20171;-56
2022/03/07 03:34:25;;;;;;;26.73;6.23;;;;;;;;;;5050470;28;20647;-56
2022/03/07 03:36:52;;;;;;;47.73;8.67;;;;;;;;;;5049683;28;20168;-56
2022/03/07 03:39:17;;;;;;;51.63;9.03;;;;;;;;;;5048934;28;20235;-56
2022/03/07 03:41:44;;;;;;;45.20;8.47;;;;;;;;;;5050176;28;20596;-55
2022/03/07 03:44:09;;;;;;;45.07;8.27;;;;;;;;;;5050350;28;20659;-56
2022/03/07 03:46:37;;;;;;;41.87;7.70;;;;;;;;;;5050477;28;20179;-56
2022/03/07 03:49:03;;;;;;;41.13;7.30;;;;;;;;;;5048951;28;20199;-56
2022/03/07 03:51:29;;;;;;;39.70;7.87;;;;;;;;;;5030423;28;20191;-56
2022/03/07 03:53:56;;;;;;;38.43;7.57;;;;;;;;;;5050097;28;20175;-55
2022/03/07 03:56:21;;;;;;;32.97;6.83;;;;;;;;;;5050316;28;20200;-56
2022/03/07 03:58:47;;;;;;;37.10;7.33;;;;;;;;;;5049926;28;20180;-56
2022/03/07 04:01:13;;;;;;;34.10;7.23;;;;;;;;;;5050412;28;20174;-56
2022/03/07 04:03:40;;;;;;;38.17;7.87;;;;;;;;;;5049945;28;20176;-56
2022/03/07 04:06:08;;;;;;;35.63;7.43;;;;;;;;;;5049837;28;20195;-56
2022/03/07 04:08:34;;;;;;;31.80;6.30;;;;;;;;;;5049620;28;20695;-55
2022/03/07 04:11:00;;;;;;;26.50;5.67;;;;;;;;;;5050027;28;20214;-56
2022/03/07 04:13:26;;;;;;;34.87;6.60;;;;;;;;;;5049661;28;20604;-56
2022/03/07 04:15:52;;;;;;;40.27;7.17;;;;;;;;;;5049239;28;20243;-56
2022/03/07 04:18:18;;;;;;;50.00;8.20;;;;;;;;;;5048964;28;20278;-56
2022/03/07 04:20:44;;;;;;;39.10;7.73;;;;;;;;;;5048790;28;20267;-55
2022/03/07 04:23:10;;;;;;;34.43;7.10;;;;;;;;;;5048289;28;20184;-56
2022/03/07 04:25:36;;;;;;;32.13;7.03;;;;;;;;;;5048149;28;20226;-56
2022/03/07 04:28:02;;;;;;;43.10;7.80;;;;;;;;;;5048956;28;20208;-56
2022/03/07 04:30:28;;;;;;;41.40;7.27;;;;;;;;;;5047989;28;20631;-55
2022/03/07 04:32:53;;;;;;;34.10;6.67;;;;;;;;;;5048582;28;20549;-56
2022/03/07 04:35:19;;;;;;;37.30;7.43;;;;;;;;;;5049496;28;20210;-56
2022/03/07 04:37:46;;;;;;;41.27;8.17;;;;;;;;;;5049103;28;20203;-56
2022/03/07 04:40:14;;;;;;;59.30;10.77;;;;;;;;;;5047925;28;20331;-56
2022/03/07 04:42:41;;;;;;;26.97;8.07;;;;;;;;;;5049193;28;20578;-56
2022/03/07 04:45:07;;;;;;;54.37;11.60;;;;;;;;;;5048709;28;20207;-56
2022/03/07 04:47:33;;;;;;;51.70;10.97;;;;;;;;;;5047634;28;20699;-56
2022/03/07 04:49:59;;;;;;;47.53;10.20;;;;;;;;;;5048369;28;20248;-56
2022/03/07 04:52:25;;;;;;;44.30;9.80;;;;;;;;;;5048572;28;20179;-56
2022/03/07 04:54:51;;;;;;;61.23;12.50;;;;;;;;;;5046882;28;20191;-56
2022/03/07 04:57:17;;;;;;;60.67;10.90;;;;;;;;;;5047358;28;20575;-56
2022/03/07 04:59:45;;;;;;;42.13;9.77;;;;;;;;;;5048452;28;20237;-56
2022/03/07 05:02:11;;;;;;;46.63;10.83;;;;;;;;;;5049155;28;20563;-55
2022/03/07 05:04:37;;;;;;;33.47;7.77;;;;;;;;;;5048941;28;20191;-56
2022/03/07 05:07:03;;;;;;;52.00;9.33;;;;;;;;;;5049358;28;20205;-55
2022/03/07 05:09:29;;;;;;;28.43;5.97;;;;;;;;;;5048609;28;20587;-56
2022/03/07 05:11:55;;;;;;;30.57;6.07;;;;;;;;;;5048650;28;20179;-56
2022/03/07 05:14:21;;;;;;;38.07;6.97;;;;;;;;;;5048611;28;20195;-56
2022/03/07 05:16:47;;;;;;;44.23;8.10;;;;;;;;;;5048429;28;20226;-56
2022/03/07 05:19:13;;;;;;;49.47;8.77;;;;;;;;;;5048747;28;20190;-56
2022/03/07 05:21:39;;;;;;;39.57;7.43;;;;;;;;;;5048591;28;20172;-56
2022/03/07 05:24:06;;;;;;;45.17;8.03;;;;;;;;;;5048351;28;20462;-56
2022/03/07 05:26:32;;;;;;;41.77;7.87;;;;;;;;;;5048208;28;20202;-56
2022/03/07 05:28:58;;;;;;;48.33;8.17;;;;;;;;;;5048110;28;20204;-55
2022/03/07 05:31:23;;;;;;;38.67;6.93;;;;;;;;;;5048423;28;20171;-55
2022/03/07 05:33:49;;;;;;;45.63;8.20;;;;;;;;;;5048620;28;20226;-56
2022/03/07 05:36:15;;;;;;;24.77;5.73;;;;;;;;;;5051987;28;20191;-55
2022/03/07 05:38:41;;;;;;;38.13;7.50;;;;;;;;;;5059222;28;20197;-55
2022/03/07 05:41:07;;;;;;;44.33;8.00;;;;;;;;;;5051082;28;20191;-55
2022/03/07 05:43:34;;;;;;;59.97;10.13;;;;;;;;;;5045820;28;20358;-56
2022/03/07 05:46:00;;;;;;;48.80;8.30;;;;;;;;;;5064192;28;20293;-56
2022/03/07 05:48:26;;;;;;;39.63;7.07;;;;;;;;;;5040651;28;20299;-55
2022/03/07 05:50:52;;;;;;;25.90;5.60;;;;;;;;;;5064340;28;20179;-55
2022/03/07 05:53:21;;;;;;;31.47;6.00;;;;;;;;;;5051761;28;20195;-55
2022/03/07 05:55:49;;;;;;;56.27;9.47;;;;;;;;;;5066403;28;20263;-55
2022/03/07 05:58:14;;;;;;;28.50;6.07;;;;;;;;;;5052172;28;20217;-55
2022/03/07 06:00:40;;;;;;;37.30;6.83;;;;;;;;;;5061858;28;20263;-55
2022/03/07 06:03:06;;;;;;;33.70;6.60;;;;;;;;;;5048205;28;20207;-55
2022/03/07 06:05:32;;;;;;;42.17;7.93;;;;;;;;;;5055793;28;20202;-55
2022/03/07 06:07:59;;;;;;;44.93;7.97;;;;;;;;;;5045736;28;20198;-55
2022/03/07 06:10:25;;;;;;;54.63;8.90;;;;;;;;;;5052388;28;20178;-55
2022/03/07 06:12:51;;;;;;;61.87;10.47;;;;;;;;;;5051998;28;20548;-56
2022/03/07 06:15:17;;;;;;;104.77;16.10;;;;;;;;;;5018018;28;20212;-56
2022/03/07 06:17:53;;;;;;;67.13;11.30;;;;;;;;;;5026712;28;20191;-56
2022/03/07 06:20:19;;;;;;;89.47;13.43;;;;;;;;;;5026347;28;20188;-56
2022/03/07 06:22:45;;;;;;;80.00;13.43;;;;;;;;;;5024867;28;20191;-56
2022/03/07 06:25:12;;;;;;;91.37;15.40;;;;;;;;;;5001012;28;20254;-56
2022/03/07 06:27:37;;;;;;;89.17;14.90;;;;;;;;;;5013739;28;20334;-55
2022/03/07 06:30:04;;;;;;;93.90;14.90;;;;;;;;;;5020145;28;20891;-55
2022/03/07 06:32:30;;;;;;;73.03;11.50;;;;;;;;;;5053266;23;21131;-67
2022/03/07 06:34:56;;;;;;;66.63;10.77;;;;;;;;;;5050077;28;20603;-66
2022/03/07 06:37:23;;;;;;;44.53;8.13;;;;;;;;;;5051934;28;20206;-66
2022/03/07 06:39:49;;;;;;;81.70;12.50;;;;;;;;;;5040836;28;20646;-66
2022/03/07 06:42:15;;;;;;;71.20;11.27;;;;;;;;;;5044913;28;20191;-66
2022/03/07 06:44:41;;;;;;;85.07;13.03;;;;;;;;;;5052353;28;21975;-65
2022/03/07 06:47:07;;;;;;;78.37;12.13;;;;;;;;;;5036959;28;20211;-65
2022/03/07 06:49:33;;;;;;;83.03;12.77;;;;;;;;;;5053738;28;20686;-66
2022/03/07 06:51:59;;;;;;;62.83;10.27;;;;;;;;;;5048323;28;20195;-66
2022/03/07 06:54:25;;;;;;;68.03;10.87;;;;;;;;;;5054462;28;20259;-67
2022/03/07 06:56:51;;;;;;;104.13;15.13;;;;;;;;;;5051102;28;20861;-66
2022/03/07 06:59:17;;;;;;;57.63;9.53;;;;;;;;;;5033540;28;20529;-66
2022/03/07 07:01:43;;;;;;;83.60;12.53;;;;;;;;;;5052102;28;20270;-66
2022/03/07 07:04:09;;;;;;;78.90;12.20;;;;;;;;;;5052340;28;20191;-66
2022/03/07 07:06:35;;;;;;;90.23;13.43;;;;;;;;;;5055624;28;20289;-67
2022/03/07 07:09:01;;;;;;;62.27;10.47;;;;;;;;;;5051198;28;20238;-66
2022/03/07 07:11:27;;;;;;;86.30;13.23;;;;;;;;;;5052213;28;20209;-66
2022/03/07 07:13:53;;;;;;;95.73;14.50;;;;;;;;;;5054857;28;20218;-65
2022/03/07 07:16:19;;;;;;;78.87;12.40;;;;;;;;;;5048966;28;20231;-72
2022/03/07 07:18:45;;;;;;;98.43;14.80;;;;;;;;;;5049298;28;20213;-69
2022/03/07 07:21:11;;;;;;;75.40;11.87;;;;;;;;;;5050855;28;20182;-68
2022/03/07 07:23:37;;;;;;;85.27;13.10;;;;;;;;;;5049378;28;20298;-69
2022/03/07 07:26:04;;;;;;;62.93;10.33;;;;;;;;;;5050775;28;20258;-69
2022/03/07 07:28:30;;;;;;;181.50;24.03;;;;;;;;;;5038325;28;20196;-64
2022/03/07 07:30:56;;;;;;;101.67;14.67;;;;;;;;;;5046734;28;20190;-65
2022/03/07 07:33:22;;;;;;;113.83;16.13;;;;;;;;;;5043246;28;20198;-67
2022/03/07 07:35:48;;;;;;;121.63;17.10;;;;;;;;;;5030355;28;20244;-67
2022/03/07 07:38:14;;;;;;;81.63;12.07;;;;;;;;;;5053508;28;20210;-66
2022/03/07 07:40:41;;;;;;;118.23;17.23;;;;;;;;;;5043405;28;20220;-65
2022/03/07 07:43:07;;;;;;;194.53;25.37;;;;;;;;;;5034265;28;20199;-65
2022/03/07 07:45:33;;;;;;;59.60;9.53;;;;;;;;;;5034826;28;20765;-64
2022/03/07 07:47:59;;;;;;;128.13;17.20;;;;;;;;;;5049128;28;20217;-65
2022/03/07 07:50:25;;;;;;;94.63;13.83;;;;;;;;;;5046008;28;20181;-69
2022/03/07 07:52:51;;;;;;;119.33;16.90;;;;;;;;;;5038322;28;20642;-69
2022/03/07 07:55:17;;;;;;;161.00;21.47;;;;;;;;;;5033782;28;20320;-69
2022/03/07 07:57:44;;;;;;;195.77;25.93;;;;;;;;;;5006264;28;20953;-68
2022/03/07 08:00:10;;;;;;;125.03;17.60;;;;;;;;;;5033339;28;20184;-69
2022/03/07 08:02:37;;;;;;;128.67;17.67;;;;;;;;;;5024540;28;20196;-68
2022/03/07 08:05:03;;;;;;;176.27;23.07;;;;;;;;;;5034714;28;20221;-67
2022/03/07 08:07:30;;;;;;;50.10;8.87;;;;;;;;;;5026822;28;20194;-69
2022/03/07 08:09:56;;;;;;;150.87;20.70;;;;;;;;;;5042278;28;20714;-70
2022/03/07 08:12:22;;;;;;;199.13;25.90;;;;;;;;;;5033956;28;20635;-70
2022/03/07 08:14:48;;;;;;;159.27;21.30;;;;;;;;;;5032851;28;20277;-69
2022/03/07 08:17:15;;;;;;;141.07;19.33;;;;;;;;;;5034854;28;20213;-70
2022/03/07 08:19:41;;;;;;;139.90;19.53;;;;;;;;;;5029732;28;20641;-68
2022/03/07 08:22:07;;;;;;;146.60;20.07;;;;;;;;;;5018290;28;20198;-68
2022/03/07 08:24:33;;;;;;;90.77;13.47;;;;;;;;;;5015595;28;20193;-68
2022/03/07 08:26:59;;;;;;;69.03;11.07;;;;;;;;;;5034527;28;20203;-67
2022/03/07 08:29:25;;;;;;;64.13;10.40;;;;;;;;;;5047665;28;21303;-67
2022/03/07 08:31:51;;;;;;;70.97;11.43;;;;;;;;;;5051854;28;20654;-66
2022/03/07 08:34:17;;;;;;;55.70;9.83;;;;;;;;;;5051446;28;20224;-66
2022/03/07 08:36:43;;;;;;;94.57;14.67;;;;;;;;;;5031916;28;20210;-66
2022/03/07 08:39:09;;;;;;;84.87;13.00;;;;;;;;;;5054364;28;20187;-65
2022/03/07 08:41:35;;;;;;;93.73;13.90;;;;;;;;;;5027319;28;20187;-64
2022/03/07 08:44:01;;;;;;;76.23;11.50;;;;;;;;;;5028851;28;20187;-67
2022/03/07 08:46:27;;;;;;;106.10;15.43;;;;;;;;;;5044884;28;20731;-66
2022/03/07 08:48:53;;;;;;;98.53;14.73;;;;;;;;;;5045440;28;20234;-66
2022/03/07 08:51:20;;;;;;;46.93;8.77;;;;;;;;;;5057252;28;20219;-66
2022/03/07 08:53:46;;;;;;;116.60;16.97;;;;;;;;;;5039583;28;20554;-66
2022/03/07 08:56:13;;;;;;;41.03;8.23;;;;;;;;;;5050415;28;20190;-66
2022/03/07 08:58:39;;;;;;;88.83;13.87;;;;;;;;;;5042247;28;20210;-66
2022/03/07 09:01:06;;;;;;;53.60;9.70;;;;;;;;;;5059046;28;20564;-66
2022/03/07 09:03:32;;;;;;;76.30;12.00;;;;;;;;;;5055177;28;20212;-66
2022/03/07 09:05:57;;;;;;;70.07;11.37;;;;;;;;;;5053010;28;20206;-66
2022/03/07 09:08:23;;;;;;;68.53;11.37;;;;;;;;;;5060209;28;20803;-66
2022/03/07 09:10:49;;;;;;;99.37;15.00;;;;;;;;;;5051908;28;20619;-66
2022/03/07 09:13:15;;;;;;;136.63;18.47;;;;;;;;;;5048677;28;20673;-65
2022/03/07 09:15:45;;;;;;;56.77;9.67;;;;;;;;;;5048206;28;20187;-66
2022/03/07 09:18:12;;;;;;;50.40;9.37;;;;;;;;;;5054815;28;20211;-67
2022/03/07 09:20:38;;;;;;;71.67;11.07;;;;;;;;;;5056916;28;20942;-66
2022/03/07 09:23:04;;;;;;;83.07;12.70;;;;;;;;;;5051702;28;20187;-66
2022/03/07 09:25:30;;;;;;;72.30;11.27;;;;;;;;;;5055995;28;20278;-66
2022/03/07 09:27:56;;;;;;;42.27;8.03;;;;;;;;;;5056696;28;20297;-66
2022/03/07 09:30:23;;;;;;;142.07;19.70;;;;;;;;;;5034772;28;20284;-65
2022/03/07 09:32:49;;;;;;;71.53;11.53;;;;;;;;;;5056733;28;20650;-68
2022/03/07 09:35:16;;;;;;;43.10;8.27;;;;;;;;;;5035818;28;20218;-65
2022/03/07 09:37:41;;;;;;;64.10;10.73;;;;;;;;;;5046776;28;20664;-67
2022/03/07 09:40:08;;;;;;;106.07;15.33;;;;;;;;;;5049273;28;20180;-67
2022/03/07 09:42:34;;;;;;;65.03;10.43;;;;;;;;;;5046608;28;20194;-66
2022/03/07 09:45:00;;;;;;;92.57;13.53;;;;;;;;;;5042415;28;20207;-66
2022/03/07 09:47:27;;;;;;;62.00;10.30;;;;;;;;;;5044595;28;20304;-66
2022/03/07 09:49:53;;;;;;;90.90;13.77;;;;;;;;;;5042368;28;20211;-67
2022/03/07 09:52:20;;;;;;;228.67;29.67;;;;;;;;;;5027310;28;20176;-66
2022/03/07 09:54:46;;;;;;;67.50;10.73;;;;;;;;;;5039112;28;20192;-67
2022/03/07 09:57:12;;;;;;;65.77;10.43;;;;;;;;;;5048855;28;20285;-67
2022/03/07 09:59:38;;;;;;;44.67;8.17;;;;;;;;;;5037857;28;20287;-67
2022/03/07 10:02:05;;;;;;;54.13;9.13;;;;;;;;;;5050732;28;20718;-67
2022/03/07 10:04:31;;;;;;;55.77;9.40;;;;;;;;;;5050106;28;20634;-66
2022/03/07 10:07:01;;;;;;;112.20;16.13;;;;;;;;;;5046633;28;20210;-66
2022/03/07 10:09:29;;;;;;;65.60;10.90;;;;;;;;;;5052093;28;20217;-66
2022/03/07 10:11:56;;;;;;;46.60;8.53;;;;;;;;;;5041639;28;20478;-66
2022/03/07 10:14:32;;;;;;;51.07;9.00;;;;;;;;;;5047593;28;20249;-66
2022/03/07 10:16:58;;;;;;;104.27;15.27;;;;;;;;;;5046688;28;20258;-67
2022/03/07 10:19:25;;;;;;;63.33;10.50;;;;;;;;;;5048237;28;20481;-66
2022/03/07 10:21:52;;;;;;;63.07;10.23;;;;;;;;;;5047861;28;20245;-65
2022/03/07 10:24:18;;;;;;;68.23;10.93;;;;;;;;;;5047368;28;20205;-66
2022/03/07 10:26:44;;;;;;;121.60;17.57;;;;;;;;;;5039914;28;20230;-66
2022/03/07 10:29:11;;;;;;;46.60;8.67;;;;;;;;;;5041490;28;20297;-69
2022/03/07 10:31:39;;;;;;;62.13;10.43;;;;;;;;;;5055106;28;20191;-67
2022/03/07 10:34:06;;;;;;;95.47;14.03;;;;;;;;;;5045706;28;20206;-66
2022/03/07 10:36:33;;;;;;;81.33;12.47;;;;;;;;;;5052012;28;20197;-66
2022/03/07 10:38:59;;;;;;;97.80;14.47;;;;;;;;;;5041860;28;20222;-67
2022/03/07 10:41:32;;;;;;;56.60;9.50;;;;;;;;;;5031209;28;20570;-66
2022/03/07 10:43:58;;;;;;;33.50;6.77;;;;;;;;;;5050635;28;20201;-66
2022/03/07 10:46:26;;;;;;;25.50;5.33;;;;;;;;;;5052297;28;20223;-65
2022/03/07 10:48:52;;;;;;;49.37;8.77;;;;;;;;;;5056426;28;20201;-68
2022/03/07 10:51:20;;;;;;;57.07;9.93;;;;;;;;;;5047592;28;20191;-66
2022/03/07 10:53:46;;;;;;;160.37;22.00;;;;;;;;;;5026704;28;20583;-70
2022/03/07 10:56:14;;;;;;;35.67;7.23;;;;;;;;;;5043566;28;20187;-70
2022/03/07 10:58:47;;;;;;;99.17;14.50;;;;;;;;;;5042258;28;20191;-66
2022/03/07 11:01:13;;;;;;;44.20;8.03;;;;;;;;;;5045286;28;20191;-66
2022/03/07 11:03:39;;;;;;;69.00;10.97;;;;;;;;;;5054074;28;20195;-63
2022/03/07 11:06:05;;;;;;;30.23;6.23;;;;;;;;;;5051312;28;20667;-63
2022/03/07 11:08:31;;;;;;;33.93;6.37;;;;;;;;;;5054887;28;20211;-63
2022/03/07 11:10:59;;;;;;;138.07;19.40;;;;;;;;;;5042791;28;22365;-65
2022/03/07 11:13:26;;;;;;;73.70;11.30;;;;;;;;;;5027578;28;20267;-66
2022/03/07 11:15:55;;;;;;;68.73;10.87;;;;;;;;;;5048775;28;20180;-66
2022/03/07 11:18:21;;;;;;;75.27;11.57;;;;;;;;;;5040902;28;20238;-65
2022/03/07 11:20:47;;;;;;;77.60;11.73;;;;;;;;;;5043232;28;20723;-66
2022/03/07 11:23:17;;;;;;;90.17;13.33;;;;;;;;;;5046318;28;20183;-66
2022/03/07 11:25:43;;;;;;;105.37;15.40;;;;;;;;;;5052616;28;20179;-65
2022/03/07 11:28:09;;;;;;;81.87;12.20;;;;;;;;;;5031023;28;20304;-65
2022/03/07 11:30:37;;;;;;;37.80;6.87;;;;;;;;;;5051736;28;20186;-62
2022/03/07 11:33:10;;;;;;;73.30;11.00;;;;;;;;;;5051463;28;20198;-62
2022/03/07 11:35:36;;;;;;;34.47;6.33;;;;;;;;;;5053901;28;20175;-63
2022/03/07 11:38:14;;;;;;;56.77;9.03;;;;;;;;;;5057544;28;20203;-64
2022/03/07 11:40:58;;;;;;;94.13;14.10;;;;;;;;;;5057968;28;20191;-64
2022/03/07 11:43:25;;;;;;;56.03;9.10;;;;;;;;;;5058235;28;20648;-64
2022/03/07 11:45:52;;;;;;;58.17;9.20;;;;;;;;;;5053362;28;20176;-63
2022/03/07 11:48:18;;;;;;;37.43;7.00;;;;;;;;;;5059630;28;20668;-63
2022/03/07 11:50:45;;;;;;;72.87;11.13;;;;;;;;;;5054688;28;20211;-63
2022/03/07 11:53:10;;;;;;;64.83;10.47;;;;;;;;;;5056212;28;20224;-63
2022/03/07 11:55:44;;;;;;;63.03;10.33;;;;;;;;;;5055512;28;20712;-63
2022/03/07 11:58:10;;;;;;;48.80;8.37;;;;;;;;;;5054941;28;20241;-63
2022/03/07 12:00:36;;;;;;;56.40;9.37;;;;;;;;;;5055114;28;20203;-63
2022/03/07 12:03:13;;;;;;;30.93;6.00;;;;;;;;;;5056413;28;20307;-62
2022/03/07 12:05:39;;;;;;;48.27;8.00;;;;;;;;;;5049738;28;20198;-63
2022/03/07 12:08:19;;;;;;;36.07;6.40;;;;;;;;;;5050648;28;20211;-63
2022/03/07 12:11:06;;;;;;;67.33;10.63;;;;;;;;;;5054216;28;20258;-63
2022/03/07 12:13:35;;;;;;;44.40;7.60;;;;;;;;;;5035617;28;20179;-63
2022/03/07 12:16:02;;;;;;;58.57;9.47;;;;;;;;;;5040853;28;20505;-64
2022/03/07 12:18:28;;;;;;;39.40;7.23;;;;;;;;;;5055865;28;20305;-64
2022/03/07 12:20:54;;;;;;;44.40;8.03;;;;;;;;;;5057605;28;20187;-63
2022/03/07 12:23:22;;;;;;;99.83;14.83;;;;;;;;;;5041697;28;20540;-63
2022/03/07 12:25:48;;;;;;;109.60;16.17;;;;;;;;;;5051647;28;20198;-62
2022/03/07 12:28:14;;;;;;;61.43;10.60;;;;;;;;;;5047343;28;20214;-64
2022/03/07 12:30:41;;;;;;;80.03;12.67;;;;;;;;;;5038095;28;20214;-66
2022/03/07 12:33:09;;;;;;;78.80;12.50;;;;;;;;;;5040522;28;20191;-66
2022/03/07 12:35:36;;;;;;;74.53;12.10;;;;;;;;;;5041909;28;20324;-66
2022/03/07 12:38:05;;;;;;;94.90;14.83;;;;;;;;;;5016630;28;20207;-66
2022/03/07 12:40:32;;;;;;;96.57;15.27;;;;;;;;;;5048693;28;20645;-66
2022/03/07 12:42:57;;;;;;;101.33;15.83;;;;;;;;;;5052232;28;20191;-66
2022/03/07 12:45:23;;;;;;;46.93;9.30;;;;;;;;;;5051069;28;20186;-66
2022/03/07 12:47:52;;;;;;;142.83;21.20;;;;;;;;;;5048992;28;20291;-65
2022/03/07 12:50:23;;;;;;;88.23;14.40;;;;;;;;;;5036985;28;20199;-66
2022/03/07 12:52:49;;;;;;;74.17;12.40;;;;;;;;;;5057233;28;20215;-66
2022/03/07 12:55:16;;;;;;;50.03;9.63;;;;;;;;;;5055467;28;20183;-66
2022/03/07 12:57:43;;;;;;;62.27;10.87;;;;;;;;;;5053466;28;20238;-66
2022/03/07 13:00:10;;;;;;;41.63;8.03;;;;;;;;;;5061287;28;20202;-65
2022/03/07 13:02:38;;;;;;;46.53;8.83;;;;;;;;;;5058766;28;20199;-66
2022/03/07 13:05:05;;;;;;;53.90;11.07;;;;;;;;;;5058005;28;20262;-66
2022/03/07 13:07:32;;;;;;;69.37;13.00;;;;;;;;;;5031422;28;20233;-65
2022/03/07 13:10:07;;;;;;;55.40;11.17;;;;;;;;;;5057048;28;20199;-66
2022/03/07 13:12:34;;;;;;;97.43;16.83;;;;;;;;;;5037863;28;20330;-72
2022/03/07 13:15:00;;;;;;;165.73;24.33;;;;;;;;;;5043864;28;20179;-73
2022/03/07 13:17:27;;;;;;;101.17;19.10;;;;;;;;;;5041942;28;20576;-75
2022/03/07 13:19:54;;;;;;;140.27;22.90;;;;;;;;;;5038978;28;20253;-76
2022/03/07 13:22:20;;;;;;;63.77;11.97;;;;;;;;;;5039482;28;20230;-75
2022/03/07 13:24:50;;;;;;;241.93;33.33;;;;;;;;;;5039933;28;20998;-73
2022/03/07 13:27:16;;;;;;;104.33;17.37;;;;;;;;;;5038089;28;20218;-73
2022/03/07 13:29:44;;;;;;;87.53;17.37;;;;;;;;;;5051572;28;20214;-73
2022/03/07 13:32:11;;;;;;;164.90;27.70;;;;;;;;;;5035978;28;20256;-73
2022/03/07 13:34:43;;;;;;;66.93;14.33;;;;;;;;;;5051003;28;20191;-73
2022/03/07 13:37:11;;;;;;;130.97;22.17;;;;;;;;;;5029633;28;20225;-73
2022/03/07 13:39:38;;;;;;;86.47;19.33;;;;;;;;;;5047613;28;20174;-73
2022/03/07 13:42:04;;;;;;;71.18;15.05;;;;;;;;;;5048033;28;20198;-72
2022/03/07 13:44:31;;;;;;;83.45;17.08;;;;;;;;;;5053934;28;20280;-73
2022/03/07 13:47:09;;;;;;;80.90;14.90;;;;;;;;;;5048487;28;20199;-73
2022/03/07 13:49:39;;;;;;;109.13;18.67;;;;;;;;;;5034127;28;20285;-73
2022/03/07 13:52:14;;;;;;;97.13;17.20;;;;;;;;;;5045209;28;20202;-72
2022/03/07 13:54:40;;;;;;;123.18;19.55;;;;;;;;;;5049460;28;20240;-69
2022/03/07 13:57:07;;;;;;;104.95;18.38;;;;;;;;;;5045577;28;20256;-73
2022/03/07 13:59:33;;;;;;;74.75;14.00;;;;;;;;;;5047147;28;20190;-73
2022/03/07 14:01:59;;;;;;;81.32;14.20;;;;;;;;;;5039912;28;20554;-73
2022/03/07 14:04:25;;;;;;;61.80;12.25;;;;;;;;;;5048567;28;20186;-72
2022/03/07 14:07:09;;;;;;;99.97;17.30;;;;;;;;;;5040751;28;20968;-73
2022/03/07 14:09:39;;;;;;;46.03;10.15;;;;;;;;;;5053267;28;20202;-73
2022/03/07 14:12:06;;;;;;;65.00;12.13;;;;;;;;;;5032622;28;20188;-73
2022/03/07 14:14:31;;;;;;;73.90;12.90;;;;;;;;;;5056666;28;20224;-73
2022/03/07 14:16:57;;;;;;;128.30;19.63;;;;;;;;;;5056422;28;20225;-73
2022/03/07 14:19:23;;;;;;;104.25;16.42;;;;;;;;;;5026660;28;20191;-73